DAL2 EGLL-KJFK
Flight info
| Callsign | DAL2 |
|---|---|
| Flight time | N/A |
| Altitude | 38000 |
| Route | CPT L9 BIBPE/N0486F380 DCT BUCGO L9 TIGWE DCT FELCA DCT NICXI DCT BAKUR DCT DOGAL/M085F390 NATC ELSIR/N0485F400 N406A TOPPS DCT ENE PARCH3 |
| Aircraft | A359/H-SDE2E3GHIJ3J4J5LM1ORWXY/LB1D1 |
Departure
| Time | N/A |
|---|---|
| Airport | London Heathrow Airport (EGLL) |
Arrival
| Time | 2026-05-07 23:05 |
|---|---|
| Airport | John F. Kennedy International Airport (KJFK) |
| Time | Latitude | Longitude | Altitude | Speed | Heading |
|---|---|---|---|---|---|
| 2026-05-07 17:34 | 54.01481 | -19.14294 | 38066 ft | 470 kts | 268° |
| 2026-05-07 17:34 | 54.01404 | -19.19859 | 38069 ft | 470 kts | 268° |
| 2026-05-07 17:35 | 54.01242 | -19.30974 | 38069 ft | 471 kts | 268° |
| 2026-05-07 17:35 | 54.01070 | -19.42105 | 38078 ft | 471 kts | 268° |
| 2026-05-07 17:36 | 54.00887 | -19.53225 | 38078 ft | 471 kts | 268° |
| 2026-05-07 17:36 | 54.00695 | -19.64349 | 38074 ft | 471 kts | 268° |
| 2026-05-07 17:37 | 54.00491 | -19.75487 | 38081 ft | 471 kts | 268° |
| 2026-05-07 17:37 | 54.00278 | -19.86614 | 38083 ft | 471 kts | 268° |
| 2026-05-07 17:38 | 54.00054 | -19.97742 | 38088 ft | 471 kts | 268° |
| 2026-05-07 17:38 | 53.99676 | -20.08864 | 38090 ft | 472 kts | 264° |
| 2026-05-07 17:39 | 53.98968 | -20.19876 | 38091 ft | 472 kts | 264° |
| 2026-05-07 17:39 | 53.98237 | -20.30949 | 38093 ft | 472 kts | 264° |
| 2026-05-07 17:40 | 53.97548 | -20.42040 | 38095 ft | 472 kts | 264° |
| 2026-05-07 17:40 | 53.96876 | -20.53139 | 38094 ft | 472 kts | 264° |
| 2026-05-07 17:41 | 53.96197 | -20.64232 | 38097 ft | 473 kts | 264° |
| 2026-05-07 17:41 | 53.95505 | -20.75342 | 38102 ft | 473 kts | 264° |
| 2026-05-07 17:42 | 53.94801 | -20.86446 | 38102 ft | 473 kts | 264° |
| 2026-05-07 17:42 | 53.94086 | -20.97550 | 38106 ft | 473 kts | 264° |
| 2026-05-07 17:43 | 53.93360 | -21.08655 | 38106 ft | 474 kts | 264° |
| 2026-05-07 17:43 | 53.92624 | -21.19765 | 38109 ft | 474 kts | 264° |
| 2026-05-07 17:44 | 53.91878 | -21.30874 | 38114 ft | 474 kts | 264° |
| 2026-05-07 17:44 | 53.91121 | -21.41982 | 38114 ft | 474 kts | 264° |
| 2026-05-07 17:45 | 53.90350 | -21.53101 | 38120 ft | 475 kts | 265° |
| 2026-05-07 17:45 | 53.89571 | -21.64233 | 38119 ft | 476 kts | 265° |
| 2026-05-07 17:46 | 53.88781 | -21.75384 | 38118 ft | 476 kts | 265° |
| 2026-05-07 17:46 | 53.87980 | -21.86520 | 38118 ft | 476 kts | 265° |
| 2026-05-07 17:47 | 53.87168 | -21.97657 | 38118 ft | 476 kts | 265° |
| 2026-05-07 17:47 | 53.86346 | -22.08797 | 38124 ft | 476 kts | 265° |
| 2026-05-07 17:48 | 53.85512 | -22.19935 | 38124 ft | 476 kts | 265° |
| 2026-05-07 17:48 | 53.84675 | -22.30990 | 38129 ft | 477 kts | 265° |
| 2026-05-07 17:49 | 53.83815 | -22.42192 | 38126 ft | 477 kts | 264° |
| 2026-05-07 17:49 | 53.82957 | -22.53238 | 38138 ft | 477 kts | 264° |
| 2026-05-07 17:50 | 53.82082 | -22.64360 | 38136 ft | 477 kts | 264° |
| 2026-05-07 17:50 | 53.81197 | -22.75485 | 38141 ft | 477 kts | 264° |
| 2026-05-07 17:51 | 53.80302 | -22.86601 | 38135 ft | 477 kts | 264° |
| 2026-05-07 17:51 | 53.79396 | -22.97712 | 38143 ft | 477 kts | 264° |
| 2026-05-07 17:52 | 53.78479 | -23.08835 | 38141 ft | 477 kts | 264° |
| 2026-05-07 17:52 | 53.77551 | -23.19950 | 38139 ft | 478 kts | 264° |
| 2026-05-07 17:53 | 53.76613 | -23.31069 | 38145 ft | 478 kts | 264° |
| 2026-05-07 17:53 | 53.75664 | -23.42184 | 38138 ft | 478 kts | 264° |
| 2026-05-07 17:54 | 53.74705 | -23.53297 | 38149 ft | 478 kts | 264° |
| 2026-05-07 17:54 | 53.73735 | -23.64405 | 38151 ft | 478 kts | 264° |
| 2026-05-07 17:55 | 53.72755 | -23.75514 | 38154 ft | 478 kts | 264° |
| 2026-05-07 17:55 | 53.71764 | -23.86617 | 38159 ft | 478 kts | 264° |
| 2026-05-07 17:56 | 53.70762 | -23.97725 | 38156 ft | 478 kts | 264° |
| 2026-05-07 17:56 | 53.69751 | -24.08822 | 38159 ft | 478 kts | 264° |
| 2026-05-07 17:57 | 53.68903 | -24.18037 | 38161 ft | 478 kts | 264° |
| 2026-05-07 17:57 | 53.67704 | -24.30931 | 38167 ft | 479 kts | 264° |
| 2026-05-07 17:58 | 53.66661 | -24.42014 | 38166 ft | 478 kts | 264° |
| 2026-05-07 17:58 | 53.65609 | -24.53089 | 38169 ft | 479 kts | 264° |
| 2026-05-07 17:59 | 53.64546 | -24.64169 | 38168 ft | 479 kts | 264° |
| 2026-05-07 17:59 | 53.63472 | -24.75237 | 38174 ft | 479 kts | 264° |
| 2026-05-07 18:00 | 53.62388 | -24.86306 | 38174 ft | 479 kts | 264° |
| 2026-05-07 18:00 | 53.61293 | -24.97373 | 38176 ft | 479 kts | 264° |
| 2026-05-07 18:01 | 53.60187 | -25.08437 | 38174 ft | 479 kts | 264° |
| 2026-05-07 18:01 | 53.59073 | -25.19490 | 38175 ft | 479 kts | 264° |
| 2026-05-07 18:02 | 53.57380 | -25.36074 | 38183 ft | 479 kts | 264° |
| 2026-05-07 18:03 | 53.56239 | -25.47124 | 38184 ft | 479 kts | 264° |
| 2026-05-07 18:03 | 53.55087 | -25.58169 | 38193 ft | 479 kts | 264° |
| 2026-05-07 18:04 | 53.53926 | -25.69202 | 38186 ft | 479 kts | 264° |
| 2026-05-07 18:04 | 53.52952 | -25.78375 | 38195 ft | 479 kts | 264° |
| 2026-05-07 18:05 | 53.51772 | -25.89396 | 38196 ft | 480 kts | 264° |
| 2026-05-07 18:05 | 53.50580 | -26.00428 | 38202 ft | 480 kts | 263° |
| 2026-05-07 18:06 | 53.49379 | -26.11450 | 38186 ft | 480 kts | 263° |
| 2026-05-07 18:06 | 53.48166 | -26.22471 | 38201 ft | 480 kts | 263° |
| 2026-05-07 18:07 | 53.46944 | -26.33486 | 38200 ft | 480 kts | 263° |
| 2026-05-07 18:07 | 53.45711 | -26.44495 | 38196 ft | 480 kts | 263° |
| 2026-05-07 18:08 | 53.44468 | -26.55502 | 38200 ft | 480 kts | 263° |
| 2026-05-07 18:08 | 53.43215 | -26.66500 | 38208 ft | 480 kts | 263° |
| 2026-05-07 18:09 | 53.41951 | -26.77497 | 38209 ft | 480 kts | 263° |
| 2026-05-07 18:09 | 53.40678 | -26.88485 | 38211 ft | 480 kts | 263° |
| 2026-05-07 18:10 | 53.39403 | -26.99389 | 38212 ft | 480 kts | 263° |
| 2026-05-07 18:10 | 53.38109 | -27.10369 | 38215 ft | 480 kts | 263° |
| 2026-05-07 18:11 | 53.36806 | -27.21331 | 38218 ft | 480 kts | 263° |
| 2026-05-07 18:11 | 53.35491 | -27.32296 | 38222 ft | 480 kts | 263° |
| 2026-05-07 18:12 | 53.34168 | -27.43242 | 38221 ft | 480 kts | 263° |
| 2026-05-07 18:12 | 53.32835 | -27.54186 | 38224 ft | 480 kts | 263° |
| 2026-05-07 18:13 | 53.31493 | -27.65115 | 38232 ft | 480 kts | 263° |
| 2026-05-07 18:13 | 53.30139 | -27.76047 | 38229 ft | 480 kts | 263° |
| 2026-05-07 18:14 | 53.28776 | -27.86961 | 38233 ft | 479 kts | 263° |
| 2026-05-07 18:14 | 53.27414 | -27.97790 | 38235 ft | 479 kts | 263° |
| 2026-05-07 18:15 | 53.26033 | -28.08683 | 38235 ft | 479 kts | 263° |
| 2026-05-07 18:15 | 53.24642 | -28.19568 | 38234 ft | 479 kts | 263° |
| 2026-05-07 18:16 | 53.23242 | -28.30442 | 38240 ft | 479 kts | 263° |
| 2026-05-07 18:16 | 53.21831 | -28.41316 | 38238 ft | 479 kts | 263° |
| 2026-05-07 18:17 | 53.20411 | -28.52174 | 38248 ft | 479 kts | 263° |
| 2026-05-07 18:17 | 53.18981 | -28.63027 | 38249 ft | 479 kts | 263° |
| 2026-05-07 18:18 | 53.17540 | -28.73877 | 38248 ft | 479 kts | 263° |
| 2026-05-07 18:18 | 53.16090 | -28.84717 | 38249 ft | 479 kts | 263° |
| 2026-05-07 18:19 | 53.14630 | -28.95556 | 38252 ft | 479 kts | 263° |
| 2026-05-07 18:19 | 53.13161 | -29.06375 | 38251 ft | 479 kts | 263° |
| 2026-05-07 18:20 | 53.11682 | -29.17191 | 38256 ft | 479 kts | 263° |
| 2026-05-07 18:20 | 53.10195 | -29.27981 | 38261 ft | 478 kts | 263° |
| 2026-05-07 18:21 | 53.08700 | -29.38754 | 38256 ft | 478 kts | 263° |
| 2026-05-07 18:21 | 53.07198 | -29.49508 | 38274 ft | 477 kts | 263° |
| 2026-05-07 18:22 | 53.05686 | -29.60248 | 38271 ft | 476 kts | 263° |
| 2026-05-07 18:22 | 53.04180 | -29.70876 | 38256 ft | 475 kts | 263° |
| 2026-05-07 18:23 | 53.02657 | -29.81540 | 38269 ft | 474 kts | 263° |
| 2026-05-07 18:23 | 53.01128 | -29.92180 | 38273 ft | 473 kts | 264° |
| 2026-05-07 18:24 | 52.99606 | -30.02774 | 38273 ft | 470 kts | 264° |
| 2026-05-07 18:24 | 52.98437 | -30.13377 | 38279 ft | 465 kts | 268° |
| 2026-05-07 18:25 | 52.97427 | -30.23983 | 38275 ft | 465 kts | 268° |
| 2026-05-07 18:25 | 52.96363 | -30.34558 | 38283 ft | 465 kts | 267° |
| 2026-05-07 18:26 | 52.95240 | -30.45122 | 38283 ft | 465 kts | 267° |
| 2026-05-07 18:26 | 52.94095 | -30.55657 | 38281 ft | 464 kts | 267° |
| 2026-05-07 18:27 | 52.92942 | -30.66186 | 38285 ft | 464 kts | 267° |
| 2026-05-07 18:27 | 52.91784 | -30.76709 | 38285 ft | 464 kts | 267° |
| 2026-05-07 18:28 | 52.90617 | -30.87233 | 38286 ft | 465 kts | 267° |
| 2026-05-07 18:28 | 52.89437 | -30.97774 | 38291 ft | 466 kts | 266° |
| 2026-05-07 18:29 | 52.88247 | -31.08319 | 38293 ft | 466 kts | 266° |
| 2026-05-07 18:29 | 52.87046 | -31.18873 | 38293 ft | 467 kts | 266° |
| 2026-05-07 18:30 | 52.85840 | -31.29376 | 38298 ft | 468 kts | 266° |
| 2026-05-07 18:30 | 52.84607 | -31.40031 | 38294 ft | 469 kts | 266° |
| 2026-05-07 18:31 | 52.83372 | -31.50618 | 38295 ft | 469 kts | 266° |
| 2026-05-07 18:31 | 52.82133 | -31.61144 | 38300 ft | 470 kts | 266° |
| 2026-05-07 18:32 | 52.80875 | -31.71754 | 38313 ft | 471 kts | 266° |
| 2026-05-07 18:32 | 52.79607 | -31.82358 | 38302 ft | 471 kts | 266° |
| 2026-05-07 18:33 | 52.78327 | -31.92977 | 38296 ft | 471 kts | 266° |
| 2026-05-07 18:33 | 52.77038 | -32.03580 | 38298 ft | 471 kts | 266° |
| 2026-05-07 18:34 | 52.75741 | -32.14162 | 38304 ft | 470 kts | 266° |
| 2026-05-07 18:34 | 52.74438 | -32.24724 | 38310 ft | 469 kts | 266° |
| 2026-05-07 18:35 | 52.73127 | -32.35259 | 38311 ft | 468 kts | 266° |
| 2026-05-07 18:35 | 52.71810 | -32.45772 | 38308 ft | 467 kts | 266° |
| 2026-05-07 18:36 | 52.70486 | -32.56251 | 38310 ft | 466 kts | 266° |
| 2026-05-07 18:36 | 52.69156 | -32.66704 | 38310 ft | 465 kts | 266° |
| 2026-05-07 18:37 | 52.67821 | -32.77111 | 38313 ft | 464 kts | 266° |
| 2026-05-07 18:37 | 52.66481 | -32.87485 | 38315 ft | 462 kts | 266° |
| 2026-05-07 18:38 | 52.65136 | -32.97827 | 38305 ft | 461 kts | 266° |
| 2026-05-07 18:38 | 52.63794 | -33.08065 | 38306 ft | 460 kts | 266° |
| 2026-05-07 18:39 | 52.62438 | -33.18341 | 38317 ft | 459 kts | 266° |
| 2026-05-07 18:39 | 52.61077 | -33.28581 | 38316 ft | 458 kts | 266° |
| 2026-05-07 18:40 | 52.59707 | -33.38814 | 38315 ft | 457 kts | 266° |
| 2026-05-07 18:40 | 52.58332 | -33.49010 | 38314 ft | 456 kts | 266° |
| 2026-05-07 18:41 | 52.56952 | -33.59173 | 38316 ft | 455 kts | 266° |
| 2026-05-07 18:41 | 52.55565 | -33.69320 | 38313 ft | 455 kts | 266° |
| 2026-05-07 18:42 | 52.54172 | -33.79439 | 38316 ft | 454 kts | 266° |
| 2026-05-07 18:42 | 52.52773 | -33.89536 | 38317 ft | 453 kts | 266° |
| 2026-05-07 18:43 | 52.51366 | -33.99614 | 38316 ft | 452 kts | 266° |
| 2026-05-07 18:43 | 52.49954 | -34.09668 | 38316 ft | 452 kts | 266° |
| 2026-05-07 18:44 | 52.48534 | -34.19713 | 38316 ft | 452 kts | 266° |
| 2026-05-07 18:44 | 52.47115 | -34.29679 | 38319 ft | 452 kts | 265° |
| 2026-05-07 18:45 | 52.45670 | -34.39768 | 38315 ft | 451 kts | 265° |
| 2026-05-07 18:45 | 52.44236 | -34.49709 | 38322 ft | 451 kts | 265° |
| 2026-05-07 18:46 | 52.42782 | -34.59721 | 38319 ft | 451 kts | 265° |
| 2026-05-07 18:46 | 52.41322 | -34.69714 | 38318 ft | 451 kts | 265° |
| 2026-05-07 18:47 | 52.39853 | -34.79700 | 38319 ft | 451 kts | 265° |
| 2026-05-07 18:47 | 52.38378 | -34.89666 | 38319 ft | 451 kts | 265° |
| 2026-05-07 18:48 | 52.36895 | -34.99630 | 38320 ft | 451 kts | 265° |
| 2026-05-07 18:48 | 52.35403 | -35.09585 | 38312 ft | 450 kts | 265° |
| 2026-05-07 18:49 | 52.33904 | -35.19523 | 38322 ft | 450 kts | 264° |
| 2026-05-07 18:49 | 52.32396 | -35.29460 | 38324 ft | 450 kts | 264° |
| 2026-05-07 18:50 | 52.30882 | -35.39375 | 38324 ft | 450 kts | 264° |
| 2026-05-07 18:50 | 52.29358 | -35.49292 | 38323 ft | 450 kts | 264° |
| 2026-05-07 18:51 | 52.27827 | -35.59196 | 38310 ft | 450 kts | 264° |
| 2026-05-07 18:51 | 52.26287 | -35.69100 | 38319 ft | 450 kts | 264° |
| 2026-05-07 18:52 | 52.24739 | -35.78993 | 38317 ft | 450 kts | 264° |
| 2026-05-07 18:52 | 52.23447 | -35.87203 | 38317 ft | 450 kts | 263° |
| 2026-05-07 18:53 | 52.21883 | -35.97088 | 38317 ft | 450 kts | 263° |
| 2026-05-07 18:53 | 52.20311 | -36.06967 | 38318 ft | 450 kts | 263° |
| 2026-05-07 18:54 | 52.18731 | -36.16839 | 38319 ft | 450 kts | 263° |
| 2026-05-07 18:54 | 52.17141 | -36.26707 | 38324 ft | 450 kts | 263° |
| 2026-05-07 18:55 | 52.15543 | -36.36575 | 38321 ft | 451 kts | 263° |
| 2026-05-07 18:55 | 52.13935 | -36.46440 | 38320 ft | 451 kts | 263° |
| 2026-05-07 18:56 | 52.12319 | -36.56298 | 38314 ft | 451 kts | 262° |
| 2026-05-07 18:56 | 52.10694 | -36.66158 | 38316 ft | 451 kts | 262° |
| 2026-05-07 18:57 | 52.09058 | -36.76023 | 38317 ft | 452 kts | 262° |
| 2026-05-07 18:57 | 52.07414 | -36.85880 | 38320 ft | 452 kts | 262° |
| 2026-05-07 18:58 | 52.05762 | -36.95728 | 38314 ft | 452 kts | 262° |
| 2026-05-07 18:58 | 52.04100 | -37.05581 | 38316 ft | 452 kts | 262° |
| 2026-05-07 18:59 | 52.02439 | -37.15373 | 38318 ft | 452 kts | 262° |
| 2026-05-07 18:59 | 52.00761 | -37.25210 | 38316 ft | 452 kts | 261° |
| 2026-05-07 19:00 | 51.99073 | -37.35046 | 38315 ft | 453 kts | 261° |
| 2026-05-07 19:00 | 51.97376 | -37.44882 | 38315 ft | 453 kts | 261° |
| 2026-05-07 19:01 | 51.95672 | -37.54708 | 38314 ft | 453 kts | 261° |
| 2026-05-07 19:01 | 51.93958 | -37.64527 | 38311 ft | 453 kts | 261° |
| 2026-05-07 19:02 | 51.92234 | -37.74354 | 38313 ft | 453 kts | 261° |
| 2026-05-07 19:02 | 51.90504 | -37.84164 | 38314 ft | 453 kts | 261° |
| 2026-05-07 19:03 | 51.88766 | -37.93964 | 38311 ft | 453 kts | 260° |
| 2026-05-07 19:03 | 51.87018 | -38.03764 | 38311 ft | 453 kts | 260° |
| 2026-05-07 19:04 | 51.85263 | -38.13552 | 38305 ft | 453 kts | 260° |
| 2026-05-07 19:04 | 51.83500 | -38.23333 | 38309 ft | 453 kts | 260° |
| 2026-05-07 19:05 | 51.81730 | -38.33097 | 38313 ft | 453 kts | 260° |
| 2026-05-07 19:05 | 51.79952 | -38.42859 | 38303 ft | 453 kts | 259° |
| 2026-05-07 19:06 | 51.78167 | -38.52604 | 38305 ft | 453 kts | 259° |
| 2026-05-07 19:06 | 51.75473 | -38.67213 | 38305 ft | 453 kts | 259° |
| 2026-05-07 19:07 | 51.73666 | -38.76950 | 38305 ft | 453 kts | 259° |
| 2026-05-07 19:07 | 51.71861 | -38.86621 | 38309 ft | 453 kts | 259° |
| 2026-05-07 19:08 | 51.70037 | -38.96348 | 38310 ft | 453 kts | 259° |
| 2026-05-07 19:08 | 51.68193 | -39.06129 | 38305 ft | 454 kts | 258° |
| 2026-05-07 19:09 | 51.66362 | -39.15792 | 38298 ft | 454 kts | 258° |
| 2026-05-07 19:09 | 51.64510 | -39.25515 | 38296 ft | 454 kts | 258° |
| 2026-05-07 19:10 | 51.62648 | -39.35240 | 38296 ft | 455 kts | 258° |
| 2026-05-07 19:10 | 51.60777 | -39.44959 | 38293 ft | 455 kts | 258° |
| 2026-05-07 19:11 | 51.58897 | -39.54678 | 38298 ft | 455 kts | 258° |
| 2026-05-07 19:11 | 51.57009 | -39.64391 | 38292 ft | 456 kts | 258° |
| 2026-05-07 19:12 | 51.55110 | -39.74109 | 38287 ft | 456 kts | 257° |
| 2026-05-07 19:12 | 51.53201 | -39.83825 | 38287 ft | 456 kts | 257° |
| 2026-05-07 19:13 | 51.51285 | -39.93536 | 38289 ft | 457 kts | 257° |
| 2026-05-07 19:13 | 51.49688 | -40.03358 | 38288 ft | 452 kts | 264° |
| 2026-05-07 19:14 | 51.48590 | -40.13290 | 38286 ft | 452 kts | 264° |
| 2026-05-07 19:14 | 51.47558 | -40.23238 | 38284 ft | 452 kts | 265° |
| 2026-05-07 19:15 | 51.46519 | -40.33197 | 38284 ft | 453 kts | 264° |
| 2026-05-07 19:15 | 51.45461 | -40.43149 | 38282 ft | 453 kts | 264° |
| 2026-05-07 19:16 | 51.44390 | -40.53101 | 38276 ft | 453 kts | 264° |
| 2026-05-07 19:16 | 51.43307 | -40.63060 | 38276 ft | 454 kts | 264° |
| 2026-05-07 19:17 | 51.42216 | -40.73026 | 38277 ft | 454 kts | 264° |
| 2026-05-07 19:17 | 51.41116 | -40.82989 | 38275 ft | 454 kts | 263° |
| 2026-05-07 19:18 | 51.40014 | -40.92892 | 38275 ft | 455 kts | 263° |
| 2026-05-07 19:18 | 51.38895 | -41.02865 | 38274 ft | 455 kts | 263° |
| 2026-05-07 19:19 | 51.37759 | -41.12905 | 38275 ft | 455 kts | 263° |
| 2026-05-07 19:19 | 51.36629 | -41.22819 | 38268 ft | 456 kts | 263° |
| 2026-05-07 19:20 | 51.35483 | -41.32789 | 38277 ft | 456 kts | 263° |
| 2026-05-07 19:20 | 51.34327 | -41.42769 | 38267 ft | 456 kts | 262° |
| 2026-05-07 19:21 | 51.33164 | -41.52737 | 38265 ft | 456 kts | 262° |
| 2026-05-07 19:21 | 51.31991 | -41.62706 | 38272 ft | 456 kts | 262° |
| 2026-05-07 19:22 | 51.30810 | -41.72667 | 38265 ft | 456 kts | 262° |
| 2026-05-07 19:22 | 51.29620 | -41.82632 | 38266 ft | 456 kts | 262° |
| 2026-05-07 19:23 | 51.28421 | -41.92596 | 38258 ft | 457 kts | 262° |
| 2026-05-07 19:23 | 51.27214 | -42.02543 | 38263 ft | 456 kts | 261° |
| 2026-05-07 19:24 | 51.25999 | -42.12488 | 38268 ft | 456 kts | 261° |
| 2026-05-07 19:24 | 51.24775 | -42.22428 | 38262 ft | 456 kts | 261° |
| 2026-05-07 19:25 | 51.23543 | -42.32368 | 38264 ft | 456 kts | 261° |
| 2026-05-07 19:25 | 51.22303 | -42.42292 | 38258 ft | 456 kts | 261° |
| 2026-05-07 19:26 | 51.21062 | -42.52150 | 38269 ft | 456 kts | 261° |
| 2026-05-07 19:26 | 51.19806 | -42.62063 | 38261 ft | 456 kts | 261° |
| 2026-05-07 19:27 | 51.18542 | -42.71968 | 38266 ft | 456 kts | 260° |
| 2026-05-07 19:27 | 51.17268 | -42.81870 | 38255 ft | 456 kts | 260° |
| 2026-05-07 19:28 | 51.15987 | -42.91764 | 38259 ft | 456 kts | 260° |
| 2026-05-07 19:28 | 51.14697 | -43.01660 | 38257 ft | 456 kts | 260° |
| 2026-05-07 19:29 | 51.13400 | -43.11534 | 38255 ft | 456 kts | 260° |
| 2026-05-07 19:29 | 51.12094 | -43.21413 | 38255 ft | 456 kts | 259° |
| 2026-05-07 19:30 | 51.10780 | -43.31279 | 38255 ft | 456 kts | 259° |
| 2026-05-07 19:30 | 51.09457 | -43.41148 | 38253 ft | 456 kts | 259° |
| 2026-05-07 19:31 | 51.08126 | -43.51003 | 38250 ft | 456 kts | 259° |
| 2026-05-07 19:31 | 51.06788 | -43.60851 | 38253 ft | 456 kts | 259° |
| 2026-05-07 19:32 | 51.05441 | -43.70696 | 38251 ft | 456 kts | 259° |
| 2026-05-07 19:32 | 51.04087 | -43.80524 | 38251 ft | 455 kts | 259° |
| 2026-05-07 19:33 | 51.02724 | -43.90352 | 38248 ft | 455 kts | 259° |
| 2026-05-07 19:33 | 51.01354 | -44.00165 | 38250 ft | 455 kts | 259° |
| 2026-05-07 19:34 | 50.99986 | -44.09904 | 38250 ft | 455 kts | 258° |
| 2026-05-07 19:34 | 50.98602 | -44.19691 | 38249 ft | 455 kts | 258° |
| 2026-05-07 19:35 | 50.97209 | -44.29477 | 38247 ft | 454 kts | 258° |
| 2026-05-07 19:35 | 50.95809 | -44.39251 | 38246 ft | 454 kts | 258° |
| 2026-05-07 19:36 | 50.94401 | -44.49015 | 38247 ft | 454 kts | 258° |
| 2026-05-07 19:36 | 50.92985 | -44.58774 | 38245 ft | 454 kts | 258° |
| 2026-05-07 19:37 | 50.91560 | -44.68531 | 38249 ft | 454 kts | 258° |
| 2026-05-07 19:37 | 50.90128 | -44.78273 | 38250 ft | 454 kts | 258° |
| 2026-05-07 19:38 | 50.88689 | -44.88007 | 38246 ft | 454 kts | 258° |
| 2026-05-07 19:38 | 50.87243 | -44.97724 | 38247 ft | 453 kts | 258° |
| 2026-05-07 19:39 | 50.86036 | -45.05787 | 38244 ft | 453 kts | 258° |
| 2026-05-07 19:39 | 50.84577 | -45.15485 | 38245 ft | 453 kts | 257° |
| 2026-05-07 19:40 | 50.83111 | -45.25168 | 38242 ft | 452 kts | 257° |
| 2026-05-07 19:40 | 50.81638 | -45.34839 | 38244 ft | 452 kts | 257° |
| 2026-05-07 19:41 | 50.80157 | -45.44499 | 38244 ft | 452 kts | 257° |
| 2026-05-07 19:41 | 50.78672 | -45.54136 | 38241 ft | 451 kts | 257° |
| 2026-05-07 19:42 | 50.77178 | -45.63765 | 38242 ft | 451 kts | 257° |
| 2026-05-07 19:42 | 50.75678 | -45.73377 | 38239 ft | 451 kts | 257° |
| 2026-05-07 19:43 | 50.74172 | -45.82975 | 38242 ft | 450 kts | 257° |
| 2026-05-07 19:43 | 50.72658 | -45.92565 | 38243 ft | 450 kts | 256° |
| 2026-05-07 19:44 | 50.71137 | -46.02145 | 38238 ft | 450 kts | 256° |
| 2026-05-07 19:44 | 50.69610 | -46.11705 | 38238 ft | 449 kts | 256° |
| 2026-05-07 19:45 | 50.68077 | -46.21253 | 38240 ft | 449 kts | 256° |
| 2026-05-07 19:45 | 50.66536 | -46.30790 | 38238 ft | 449 kts | 256° |
| 2026-05-07 19:46 | 50.64988 | -46.40313 | 38232 ft | 448 kts | 256° |
| 2026-05-07 19:46 | 50.63433 | -46.49831 | 38236 ft | 448 kts | 255° |
| 2026-05-07 19:47 | 50.61874 | -46.59319 | 38232 ft | 448 kts | 255° |
| 2026-05-07 19:47 | 50.60306 | -46.68809 | 38233 ft | 447 kts | 255° |
| 2026-05-07 19:48 | 50.58733 | -46.78273 | 38229 ft | 447 kts | 255° |
| 2026-05-07 19:48 | 50.57163 | -46.87671 | 38230 ft | 447 kts | 255° |
| 2026-05-07 19:49 | 50.55579 | -46.97102 | 38226 ft | 446 kts | 255° |
| 2026-05-07 19:49 | 50.53985 | -47.06535 | 38226 ft | 446 kts | 254° |
| 2026-05-07 19:50 | 50.52387 | -47.15946 | 38228 ft | 446 kts | 254° |
| 2026-05-07 19:50 | 50.50780 | -47.25353 | 38225 ft | 446 kts | 254° |
| 2026-05-07 19:51 | 50.49166 | -47.34757 | 38223 ft | 446 kts | 253° |
| 2026-05-07 19:51 | 50.47546 | -47.44144 | 38221 ft | 445 kts | 253° |
| 2026-05-07 19:52 | 50.45917 | -47.53526 | 38220 ft | 445 kts | 253° |
| 2026-05-07 19:52 | 50.44282 | -47.62897 | 38220 ft | 445 kts | 253° |
| 2026-05-07 19:53 | 50.42639 | -47.72264 | 38218 ft | 445 kts | 253° |
| 2026-05-07 19:53 | 50.40989 | -47.81625 | 38218 ft | 445 kts | 252° |
| 2026-05-07 19:54 | 50.39343 | -47.90911 | 38214 ft | 445 kts | 252° |
| 2026-05-07 19:54 | 50.37669 | -48.00308 | 38212 ft | 445 kts | 252° |
| 2026-05-07 19:55 | 50.36000 | -48.09627 | 38211 ft | 444 kts | 252° |
| 2026-05-07 19:55 | 50.34325 | -48.18934 | 38207 ft | 444 kts | 252° |
| 2026-05-07 19:56 | 50.32642 | -48.28233 | 38205 ft | 444 kts | 252° |
| 2026-05-07 19:56 | 50.30966 | -48.37450 | 38200 ft | 443 kts | 251° |
| 2026-05-07 19:57 | 50.29273 | -48.46713 | 38203 ft | 443 kts | 251° |
| 2026-05-07 19:57 | 50.27573 | -48.55966 | 38197 ft | 443 kts | 251° |
| 2026-05-07 19:58 | 50.25867 | -48.65209 | 38196 ft | 442 kts | 251° |
| 2026-05-07 19:58 | 50.24154 | -48.74436 | 38193 ft | 442 kts | 251° |
| 2026-05-07 19:59 | 50.22433 | -48.83666 | 38189 ft | 442 kts | 251° |
| 2026-05-07 19:59 | 50.20707 | -48.92873 | 38183 ft | 442 kts | 251° |
| 2026-05-07 20:00 | 50.18974 | -49.02075 | 38181 ft | 442 kts | 250° |
| 2026-05-07 20:00 | 50.17235 | -49.11264 | 38181 ft | 442 kts | 250° |
| 2026-05-07 20:01 | 50.15489 | -49.20446 | 38180 ft | 441 kts | 250° |
| 2026-05-07 20:01 | 50.13737 | -49.29610 | 38174 ft | 441 kts | 250° |
| 2026-05-07 20:02 | 50.11979 | -49.38764 | 38164 ft | 441 kts | 250° |
| 2026-05-07 20:02 | 50.10215 | -49.47907 | 38172 ft | 440 kts | 250° |
| 2026-05-07 20:03 | 50.08446 | -49.57030 | 38160 ft | 440 kts | 250° |
| 2026-05-07 20:03 | 50.06672 | -49.66134 | 38165 ft | 439 kts | 250° |
| 2026-05-07 20:04 | 50.04892 | -49.75228 | 38160 ft | 439 kts | 249° |
| 2026-05-07 20:04 | 50.03108 | -49.84302 | 38153 ft | 439 kts | 249° |
| 2026-05-07 20:05 | 50.01316 | -49.93371 | 38136 ft | 438 kts | 249° |
| 2026-05-07 20:05 | 49.99513 | -50.02416 | 38135 ft | 438 kts | 248° |
| 2026-05-07 20:06 | 49.97435 | -50.11297 | 38140 ft | 436 kts | 245° |
| 2026-05-07 20:06 | 49.95235 | -50.20069 | 38137 ft | 436 kts | 245° |
| 2026-05-07 20:07 | 49.93062 | -50.28857 | 38132 ft | 436 kts | 246° |
| 2026-05-07 20:07 | 49.90932 | -50.37604 | 38131 ft | 436 kts | 246° |
| 2026-05-07 20:08 | 49.88793 | -50.46401 | 38124 ft | 436 kts | 246° |
| 2026-05-07 20:08 | 49.86651 | -50.55177 | 38121 ft | 435 kts | 246° |
| 2026-05-07 20:09 | 49.84500 | -50.63943 | 38119 ft | 435 kts | 246° |
| 2026-05-07 20:10 | 49.81265 | -50.77059 | 38544 ft | 433 kts | 245° |
| 2026-05-07 20:10 | 49.80193 | -50.81389 | 38859 ft | 430 kts | 245° |
| 2026-05-07 20:10 | 49.79122 | -50.85709 | 39047 ft | 430 kts | 245° |
| 2026-05-07 20:10 | 49.78049 | -50.90028 | 39177 ft | 430 kts | 245° |
| 2026-05-07 20:11 | 49.76971 | -50.94352 | 39312 ft | 431 kts | 245° |
| 2026-05-07 20:11 | 49.75891 | -50.98679 | 39427 ft | 432 kts | 245° |
| 2026-05-07 20:11 | 49.74806 | -51.03014 | 39554 ft | 432 kts | 245° |
| 2026-05-07 20:11 | 49.73720 | -51.07347 | 39679 ft | 433 kts | 245° |
| 2026-05-07 20:12 | 49.72630 | -51.11690 | 39811 ft | 433 kts | 246° |
| 2026-05-07 20:12 | 49.71539 | -51.16029 | 39933 ft | 434 kts | 246° |
| 2026-05-07 20:12 | 49.70443 | -51.20375 | 40041 ft | 435 kts | 246° |
| 2026-05-07 20:13 | 49.68251 | -51.29049 | 40084 ft | 437 kts | 246° |
| 2026-05-07 20:13 | 49.66023 | -51.37834 | 40083 ft | 437 kts | 246° |
| 2026-05-07 20:14 | 49.63817 | -51.46499 | 40078 ft | 437 kts | 246° |
| 2026-05-07 20:14 | 49.61587 | -51.55219 | 40074 ft | 437 kts | 246° |
| 2026-05-07 20:15 | 49.59352 | -51.63927 | 40070 ft | 437 kts | 246° |
| 2026-05-07 20:15 | 49.57111 | -51.72625 | 40064 ft | 437 kts | 246° |
| 2026-05-07 20:16 | 49.54862 | -51.81319 | 40062 ft | 437 kts | 246° |
| 2026-05-07 20:16 | 49.52607 | -51.90006 | 40061 ft | 437 kts | 246° |
| 2026-05-07 20:17 | 49.50367 | -51.98708 | 40057 ft | 438 kts | 248° |
| 2026-05-07 20:17 | 49.48606 | -52.07699 | 40051 ft | 439 kts | 251° |
| 2026-05-07 20:18 | 49.46970 | -52.16746 | 40047 ft | 439 kts | 252° |
| 2026-05-07 20:18 | 49.45347 | -52.25799 | 40043 ft | 439 kts | 252° |
| 2026-05-07 20:19 | 49.43710 | -52.34847 | 40043 ft | 439 kts | 252° |
| 2026-05-07 20:19 | 49.42072 | -52.43819 | 40036 ft | 439 kts | 252° |
| 2026-05-07 20:20 | 49.40414 | -52.52844 | 40036 ft | 439 kts | 252° |
| 2026-05-07 20:20 | 49.38750 | -52.61860 | 40032 ft | 439 kts | 252° |
| 2026-05-07 20:21 | 49.37078 | -52.70872 | 40028 ft | 439 kts | 252° |
| 2026-05-07 20:21 | 49.35400 | -52.79880 | 40021 ft | 439 kts | 252° |
| 2026-05-07 20:22 | 49.33712 | -52.88894 | 40011 ft | 440 kts | 252° |
| 2026-05-07 20:22 | 49.32016 | -52.97906 | 40010 ft | 440 kts | 252° |
| 2026-05-07 20:23 | 49.30313 | -53.06914 | 40000 ft | 441 kts | 252° |
| 2026-05-07 20:23 | 49.28599 | -53.15934 | 39994 ft | 441 kts | 252° |
| 2026-05-07 20:24 | 49.26876 | -53.24958 | 39988 ft | 441 kts | 252° |
| 2026-05-07 20:24 | 49.25158 | -53.33915 | 39986 ft | 442 kts | 251° |
| 2026-05-07 20:25 | 49.23409 | -53.42994 | 39986 ft | 442 kts | 252° |
| 2026-05-07 20:25 | 49.21676 | -53.51940 | 39978 ft | 442 kts | 251° |
| 2026-05-07 20:26 | 49.19924 | -53.60950 | 39978 ft | 442 kts | 251° |
| 2026-05-07 20:26 | 49.18167 | -53.69939 | 39974 ft | 441 kts | 251° |
| 2026-05-07 20:27 | 49.16403 | -53.78921 | 39975 ft | 441 kts | 251° |
| 2026-05-07 20:27 | 49.14634 | -53.87887 | 39972 ft | 441 kts | 251° |
| 2026-05-07 20:28 | 49.12858 | -53.96847 | 39973 ft | 441 kts | 251° |
| 2026-05-07 20:28 | 49.11439 | -54.03976 | 39972 ft | 441 kts | 251° |
| 2026-05-07 20:29 | 49.09652 | -54.12918 | 39963 ft | 441 kts | 251° |
| 2026-05-07 20:29 | 49.07858 | -54.21854 | 39955 ft | 440 kts | 251° |
| 2026-05-07 20:30 | 49.06056 | -54.30786 | 39947 ft | 440 kts | 251° |
| 2026-05-07 20:30 | 49.04249 | -54.39704 | 39935 ft | 440 kts | 251° |
| 2026-05-07 20:31 | 49.02439 | -54.48602 | 39928 ft | 440 kts | 251° |
| 2026-05-07 20:31 | 49.00623 | -54.57481 | 39926 ft | 439 kts | 251° |
| 2026-05-07 20:32 | 48.98802 | -54.66351 | 39929 ft | 438 kts | 251° |
| 2026-05-07 20:32 | 48.96977 | -54.75194 | 39930 ft | 438 kts | 251° |
| 2026-05-07 20:33 | 48.95148 | -54.84022 | 39936 ft | 437 kts | 251° |
| 2026-05-07 20:33 | 48.93314 | -54.92839 | 39942 ft | 437 kts | 251° |
| 2026-05-07 20:34 | 48.91474 | -55.01639 | 39946 ft | 436 kts | 251° |
| 2026-05-07 20:34 | 48.89629 | -55.10424 | 39942 ft | 436 kts | 251° |
| 2026-05-07 20:35 | 48.87779 | -55.19203 | 39939 ft | 436 kts | 250° |
| 2026-05-07 20:35 | 48.85922 | -55.27969 | 39931 ft | 436 kts | 250° |
| 2026-05-07 20:36 | 48.84059 | -55.36730 | 39925 ft | 436 kts | 250° |
| 2026-05-07 20:36 | 48.82190 | -55.45481 | 39922 ft | 436 kts | 250° |
| 2026-05-07 20:37 | 48.80330 | -55.54154 | 39911 ft | 435 kts | 250° |
| 2026-05-07 20:37 | 48.78452 | -55.62872 | 39906 ft | 435 kts | 250° |
| 2026-05-07 20:38 | 48.76567 | -55.71585 | 39898 ft | 434 kts | 250° |
| 2026-05-07 20:38 | 48.74666 | -55.80334 | 39899 ft | 434 kts | 250° |
| 2026-05-07 20:39 | 48.72787 | -55.88949 | 39883 ft | 434 kts | 250° |
| 2026-05-07 20:39 | 48.70889 | -55.97612 | 39896 ft | 433 kts | 250° |
| 2026-05-07 20:40 | 48.68985 | -56.06266 | 39878 ft | 433 kts | 250° |
| 2026-05-07 20:40 | 48.67076 | -56.14907 | 39876 ft | 433 kts | 249° |
| 2026-05-07 20:41 | 48.65163 | -56.23532 | 39871 ft | 432 kts | 249° |
| 2026-05-07 20:41 | 48.63245 | -56.32142 | 39861 ft | 432 kts | 249° |
| 2026-05-07 20:42 | 48.61323 | -56.40734 | 39859 ft | 432 kts | 249° |
| 2026-05-07 20:42 | 48.59395 | -56.49322 | 39856 ft | 431 kts | 249° |
| 2026-05-07 20:43 | 48.57462 | -56.57894 | 39847 ft | 431 kts | 249° |
| 2026-05-07 20:43 | 48.55524 | -56.66453 | 39846 ft | 431 kts | 249° |
| 2026-05-07 20:44 | 48.53582 | -56.74998 | 39839 ft | 430 kts | 249° |
| 2026-05-07 20:44 | 48.51633 | -56.83537 | 39837 ft | 430 kts | 249° |
| 2026-05-07 20:45 | 48.49682 | -56.92053 | 39840 ft | 430 kts | 249° |
| 2026-05-07 20:45 | 48.47724 | -57.00562 | 39846 ft | 430 kts | 249° |
| 2026-05-07 20:46 | 48.45760 | -57.09066 | 39848 ft | 429 kts | 249° |
| 2026-05-07 20:46 | 48.43805 | -57.17496 | 39850 ft | 429 kts | 249° |
| 2026-05-07 20:47 | 48.41832 | -57.25971 | 39855 ft | 429 kts | 249° |
| 2026-05-07 20:47 | 48.39839 | -57.34498 | 39854 ft | 429 kts | 248° |
| 2026-05-07 20:48 | 48.37870 | -57.42889 | 39856 ft | 428 kts | 248° |
| 2026-05-07 20:48 | 48.35883 | -57.51324 | 39851 ft | 428 kts | 248° |
| 2026-05-07 20:49 | 48.33894 | -57.59741 | 39841 ft | 427 kts | 248° |
| 2026-05-07 20:49 | 48.31900 | -57.68140 | 39847 ft | 427 kts | 248° |
| 2026-05-07 20:50 | 48.29902 | -57.76526 | 39842 ft | 426 kts | 248° |
| 2026-05-07 20:50 | 48.27901 | -57.84891 | 39834 ft | 425 kts | 248° |
| 2026-05-07 20:51 | 48.25897 | -57.93237 | 39837 ft | 425 kts | 248° |
| 2026-05-07 20:51 | 48.23889 | -58.01567 | 39820 ft | 425 kts | 248° |
| 2026-05-07 20:52 | 48.21876 | -58.09889 | 39818 ft | 424 kts | 248° |
| 2026-05-07 20:52 | 48.19858 | -58.18198 | 39817 ft | 424 kts | 248° |
| 2026-05-07 20:53 | 48.17834 | -58.26500 | 39808 ft | 424 kts | 248° |
| 2026-05-07 20:53 | 48.15806 | -58.34787 | 39800 ft | 424 kts | 248° |
| 2026-05-07 20:54 | 48.13772 | -58.43073 | 39793 ft | 424 kts | 248° |
| 2026-05-07 20:54 | 48.11732 | -58.51349 | 39791 ft | 424 kts | 248° |
| 2026-05-07 20:55 | 48.09685 | -58.59617 | 39785 ft | 424 kts | 248° |
| 2026-05-07 20:55 | 48.07631 | -58.67888 | 39778 ft | 424 kts | 247° |
| 2026-05-07 20:56 | 48.05586 | -58.76097 | 39768 ft | 424 kts | 247° |
| 2026-05-07 20:56 | 48.03521 | -58.84350 | 39763 ft | 424 kts | 247° |
| 2026-05-07 20:57 | 48.01450 | -58.92596 | 39757 ft | 423 kts | 247° |
| 2026-05-07 20:57 | 47.99380 | -59.00814 | 39750 ft | 422 kts | 247° |
| 2026-05-07 20:58 | 47.97307 | -59.09010 | 39748 ft | 421 kts | 247° |
| 2026-05-07 20:58 | 47.95237 | -59.17169 | 39741 ft | 420 kts | 247° |
| 2026-05-07 20:59 | 47.93164 | -59.25301 | 39737 ft | 419 kts | 247° |
| 2026-05-07 20:59 | 47.91087 | -59.33423 | 39723 ft | 418 kts | 246° |
| 2026-05-07 21:00 | 47.89016 | -59.41503 | 39724 ft | 417 kts | 246° |
| 2026-05-07 21:00 | 47.86943 | -59.49558 | 39721 ft | 416 kts | 246° |
| 2026-05-07 21:01 | 47.84865 | -59.57597 | 39709 ft | 416 kts | 246° |
| 2026-05-07 21:01 | 47.82781 | -59.65635 | 39708 ft | 416 kts | 246° |
| 2026-05-07 21:02 | 47.80718 | -59.73564 | 39705 ft | 416 kts | 246° |
| 2026-05-07 21:02 | 47.78625 | -59.81583 | 39697 ft | 416 kts | 246° |
| 2026-05-07 21:03 | 47.76537 | -59.89556 | 39697 ft | 416 kts | 246° |
| 2026-05-07 21:03 | 47.74431 | -59.97565 | 39689 ft | 416 kts | 246° |
| 2026-05-07 21:04 | 47.72317 | -60.05577 | 39679 ft | 417 kts | 245° |
| 2026-05-07 21:04 | 47.70198 | -60.13586 | 39678 ft | 417 kts | 245° |
| 2026-05-07 21:05 | 47.68071 | -60.21592 | 39675 ft | 417 kts | 245° |
| 2026-05-07 21:05 | 47.65934 | -60.29608 | 39666 ft | 418 kts | 245° |
| 2026-05-07 21:06 | 47.63792 | -60.37621 | 39665 ft | 418 kts | 245° |
| 2026-05-07 21:06 | 47.61639 | -60.45641 | 39665 ft | 419 kts | 245° |
| 2026-05-07 21:07 | 47.59478 | -60.53665 | 39660 ft | 419 kts | 245° |
| 2026-05-07 21:07 | 47.57314 | -60.61676 | 39661 ft | 419 kts | 245° |
| 2026-05-07 21:08 | 47.55139 | -60.69700 | 39657 ft | 420 kts | 245° |
| 2026-05-07 21:08 | 47.52958 | -60.77714 | 39661 ft | 420 kts | 245° |
| 2026-05-07 21:09 | 47.50773 | -60.85722 | 39652 ft | 420 kts | 245° |
| 2026-05-07 21:09 | 47.48581 | -60.93725 | 39655 ft | 420 kts | 245° |
| 2026-05-07 21:10 | 47.46383 | -61.01721 | 39647 ft | 420 kts | 245° |
| 2026-05-07 21:10 | 47.44181 | -61.09709 | 39645 ft | 420 kts | 245° |
| 2026-05-07 21:11 | 47.41974 | -61.17686 | 39643 ft | 420 kts | 245° |
| 2026-05-07 21:11 | 47.38668 | -61.29588 | 39643 ft | 419 kts | 245° |
| 2026-05-07 21:12 | 47.36448 | -61.37546 | 39633 ft | 419 kts | 245° |
| 2026-05-07 21:12 | 47.34220 | -61.45504 | 39643 ft | 420 kts | 245° |
| 2026-05-07 21:13 | 47.31988 | -61.53454 | 39646 ft | 420 kts | 245° |
| 2026-05-07 21:13 | 47.29751 | -61.61393 | 39644 ft | 420 kts | 245° |
| 2026-05-07 21:14 | 47.27508 | -61.69329 | 39642 ft | 420 kts | 245° |
| 2026-05-07 21:14 | 47.25256 | -61.77270 | 39643 ft | 420 kts | 245° |
| 2026-05-07 21:15 | 47.23002 | -61.85191 | 39642 ft | 420 kts | 245° |
| 2026-05-07 21:15 | 47.21107 | -61.91829 | 39646 ft | 420 kts | 245° |
| 2026-05-07 21:16 | 47.18839 | -61.99751 | 39652 ft | 420 kts | 245° |
| 2026-05-07 21:16 | 47.16584 | -62.07605 | 39654 ft | 420 kts | 245° |
| 2026-05-07 21:17 | 47.14306 | -62.15509 | 39653 ft | 420 kts | 245° |
| 2026-05-07 21:17 | 47.12026 | -62.23399 | 39653 ft | 420 kts | 245° |
| 2026-05-07 21:18 | 47.09740 | -62.31281 | 39657 ft | 420 kts | 245° |
| 2026-05-07 21:18 | 47.07449 | -62.39156 | 39658 ft | 419 kts | 245° |
| 2026-05-07 21:19 | 47.05155 | -62.47017 | 39656 ft | 419 kts | 245° |
| 2026-05-07 21:19 | 47.02855 | -62.54871 | 39658 ft | 419 kts | 245° |
| 2026-05-07 21:20 | 47.00549 | -62.62721 | 39659 ft | 419 kts | 245° |
| 2026-05-07 21:20 | 46.98239 | -62.70561 | 39658 ft | 419 kts | 245° |
| 2026-05-07 21:21 | 46.95924 | -62.78391 | 39654 ft | 419 kts | 245° |
| 2026-05-07 21:21 | 46.93604 | -62.86216 | 39656 ft | 419 kts | 245° |
| 2026-05-07 21:22 | 46.91281 | -62.94023 | 39650 ft | 419 kts | 245° |
| 2026-05-07 21:22 | 46.88955 | -63.01820 | 39655 ft | 418 kts | 244° |
| 2026-05-07 21:23 | 46.86621 | -63.09616 | 39655 ft | 418 kts | 244° |
| 2026-05-07 21:23 | 46.84301 | -63.17342 | 39653 ft | 418 kts | 244° |
| 2026-05-07 21:24 | 46.81962 | -63.25107 | 39657 ft | 418 kts | 244° |
| 2026-05-07 21:24 | 46.79617 | -63.32865 | 39654 ft | 418 kts | 244° |
| 2026-05-07 21:25 | 46.77268 | -63.40616 | 39663 ft | 418 kts | 244° |
| 2026-05-07 21:25 | 46.74913 | -63.48361 | 39654 ft | 418 kts | 244° |
| 2026-05-07 21:26 | 46.72552 | -63.56103 | 39657 ft | 418 kts | 244° |
| 2026-05-07 21:26 | 46.70186 | -63.63837 | 39658 ft | 418 kts | 244° |
| 2026-05-07 21:27 | 46.67814 | -63.71567 | 39656 ft | 418 kts | 244° |
| 2026-05-07 21:27 | 46.65439 | -63.79281 | 39656 ft | 418 kts | 244° |
| 2026-05-07 21:28 | 46.63060 | -63.86986 | 39658 ft | 418 kts | 244° |
| 2026-05-07 21:28 | 46.60690 | -63.94638 | 39658 ft | 418 kts | 244° |
| 2026-05-07 21:29 | 46.58298 | -64.02339 | 39656 ft | 417 kts | 244° |
| 2026-05-07 21:29 | 46.55904 | -64.10022 | 39653 ft | 418 kts | 244° |
| 2026-05-07 21:30 | 46.53503 | -64.17705 | 39656 ft | 418 kts | 244° |
| 2026-05-07 21:30 | 46.51096 | -64.25382 | 39656 ft | 417 kts | 244° |
| 2026-05-07 21:31 | 46.48686 | -64.33048 | 39658 ft | 417 kts | 244° |
| 2026-05-07 21:31 | 46.46271 | -64.40706 | 39655 ft | 417 kts | 244° |
| 2026-05-07 21:32 | 46.43852 | -64.48354 | 39654 ft | 417 kts | 244° |
| 2026-05-07 21:32 | 46.41429 | -64.55991 | 39657 ft | 417 kts | 244° |
| 2026-05-07 21:33 | 46.39001 | -64.63621 | 39658 ft | 417 kts | 244° |
| 2026-05-07 21:33 | 46.36569 | -64.71242 | 39655 ft | 417 kts | 244° |
| 2026-05-07 21:34 | 46.34134 | -64.78848 | 39658 ft | 417 kts | 244° |
| 2026-05-07 21:34 | 46.31694 | -64.86447 | 39660 ft | 416 kts | 244° |
| 2026-05-07 21:35 | 46.29250 | -64.94039 | 39659 ft | 416 kts | 244° |
| 2026-05-07 21:35 | 46.26801 | -65.01619 | 39658 ft | 416 kts | 244° |
| 2026-05-07 21:36 | 46.24351 | -65.09185 | 39660 ft | 416 kts | 244° |
| 2026-05-07 21:36 | 46.21894 | -65.16748 | 39661 ft | 416 kts | 244° |
| 2026-05-07 21:37 | 46.19434 | -65.24298 | 39661 ft | 415 kts | 244° |
| 2026-05-07 21:37 | 46.16973 | -65.31831 | 39663 ft | 415 kts | 244° |
| 2026-05-07 21:38 | 46.14520 | -65.39316 | 39664 ft | 415 kts | 244° |
| 2026-05-07 21:38 | 46.12049 | -65.46834 | 39664 ft | 415 kts | 244° |
| 2026-05-07 21:39 | 46.09574 | -65.54344 | 39664 ft | 415 kts | 244° |
| 2026-05-07 21:39 | 46.07093 | -65.61850 | 39663 ft | 415 kts | 244° |
| 2026-05-07 21:40 | 46.04606 | -65.69351 | 39666 ft | 415 kts | 244° |
| 2026-05-07 21:40 | 46.02116 | -65.76840 | 39665 ft | 415 kts | 243° |
| 2026-05-07 21:41 | 45.99622 | -65.84322 | 39663 ft | 415 kts | 243° |
| 2026-05-07 21:41 | 45.97125 | -65.91790 | 39669 ft | 415 kts | 243° |
| 2026-05-07 21:42 | 45.94621 | -65.99256 | 39667 ft | 415 kts | 243° |
| 2026-05-07 21:42 | 45.92114 | -66.06711 | 39667 ft | 414 kts | 243° |
| 2026-05-07 21:43 | 45.89601 | -66.14166 | 39665 ft | 414 kts | 243° |
| 2026-05-07 21:43 | 45.87084 | -66.21607 | 39664 ft | 414 kts | 243° |
| 2026-05-07 21:44 | 45.84583 | -66.28983 | 39664 ft | 414 kts | 243° |
| 2026-05-07 21:44 | 45.82061 | -66.36399 | 39667 ft | 414 kts | 243° |
| 2026-05-07 21:45 | 45.79535 | -66.43806 | 39666 ft | 413 kts | 243° |
| 2026-05-07 21:45 | 45.77007 | -66.51199 | 39666 ft | 413 kts | 243° |
| 2026-05-07 21:46 | 45.74474 | -66.58584 | 39666 ft | 413 kts | 243° |
| 2026-05-07 21:46 | 45.71937 | -66.65959 | 39667 ft | 413 kts | 243° |
| 2026-05-07 21:47 | 45.69398 | -66.73324 | 39670 ft | 412 kts | 243° |
| 2026-05-07 21:47 | 45.66857 | -66.80672 | 39673 ft | 412 kts | 243° |
| 2026-05-07 21:48 | 45.64311 | -66.88013 | 39675 ft | 412 kts | 243° |
| 2026-05-07 21:48 | 45.61759 | -66.95351 | 39679 ft | 412 kts | 243° |
| 2026-05-07 21:49 | 45.59201 | -67.02689 | 39683 ft | 412 kts | 243° |
| 2026-05-07 21:49 | 45.56641 | -67.10012 | 39684 ft | 412 kts | 243° |
| 2026-05-07 21:50 | 45.54124 | -67.17192 | 39683 ft | 412 kts | 243° |
| 2026-05-07 21:50 | 45.51553 | -67.24503 | 39684 ft | 412 kts | 243° |
| 2026-05-07 21:51 | 45.48980 | -67.31803 | 39683 ft | 412 kts | 243° |
| 2026-05-07 21:51 | 45.46401 | -67.39100 | 39685 ft | 412 kts | 243° |
| 2026-05-07 21:52 | 45.43817 | -67.46391 | 39693 ft | 412 kts | 243° |
| 2026-05-07 21:52 | 45.41229 | -67.53673 | 39694 ft | 412 kts | 243° |
| 2026-05-07 21:53 | 45.38637 | -67.60948 | 39701 ft | 412 kts | 243° |
| 2026-05-07 21:53 | 45.36040 | -67.68216 | 39703 ft | 412 kts | 243° |
| 2026-05-07 21:54 | 45.33061 | -67.75161 | 39707 ft | 413 kts | 233° |
| 2026-05-07 21:54 | 45.29328 | -67.81370 | 39708 ft | 413 kts | 231° |
| 2026-05-07 21:55 | 45.25471 | -67.87423 | 39706 ft | 414 kts | 230° |
| 2026-05-07 21:55 | 45.21599 | -67.93454 | 39706 ft | 413 kts | 230° |
| 2026-05-07 21:56 | 45.17737 | -67.99492 | 39707 ft | 413 kts | 230° |
| 2026-05-07 21:56 | 45.13888 | -68.05517 | 39705 ft | 412 kts | 230° |
| 2026-05-07 21:57 | 45.10037 | -68.11535 | 39707 ft | 412 kts | 230° |
| 2026-05-07 21:57 | 45.06188 | -68.17537 | 39706 ft | 412 kts | 230° |
| 2026-05-07 21:58 | 45.02337 | -68.23528 | 39704 ft | 411 kts | 230° |
| 2026-05-07 21:58 | 44.98514 | -68.29462 | 39704 ft | 411 kts | 230° |
| 2026-05-07 21:59 | 44.94661 | -68.35431 | 39704 ft | 411 kts | 230° |
| 2026-05-07 21:59 | 44.90805 | -68.41390 | 39704 ft | 411 kts | 230° |
| 2026-05-07 22:00 | 44.86952 | -68.47333 | 39708 ft | 411 kts | 230° |
| 2026-05-07 22:00 | 44.83094 | -68.53270 | 39706 ft | 410 kts | 230° |
| 2026-05-07 22:01 | 44.79241 | -68.59187 | 39713 ft | 410 kts | 230° |
| 2026-05-07 22:01 | 44.75385 | -68.65096 | 39711 ft | 410 kts | 230° |
| 2026-05-07 22:02 | 44.71529 | -68.70993 | 39710 ft | 409 kts | 230° |
| 2026-05-07 22:02 | 44.67676 | -68.76871 | 39711 ft | 409 kts | 230° |
| 2026-05-07 22:03 | 44.63823 | -68.82737 | 39710 ft | 409 kts | 230° |
| 2026-05-07 22:03 | 44.59965 | -68.88598 | 39710 ft | 408 kts | 230° |
| 2026-05-07 22:04 | 44.56763 | -68.93456 | 39717 ft | 408 kts | 230° |
| 2026-05-07 22:04 | 44.52911 | -68.99285 | 39720 ft | 407 kts | 230° |
| 2026-05-07 22:05 | 44.49062 | -69.05099 | 39725 ft | 407 kts | 230° |
| 2026-05-07 22:05 | 44.45211 | -69.10904 | 39722 ft | 407 kts | 230° |
| 2026-05-07 22:06 | 44.41352 | -69.16709 | 39723 ft | 407 kts | 230° |
| 2026-05-07 22:06 | 44.37490 | -69.22506 | 39729 ft | 407 kts | 230° |
| 2026-05-07 22:07 | 44.33629 | -69.28290 | 39727 ft | 407 kts | 230° |
| 2026-05-07 22:07 | 44.29764 | -69.34068 | 39743 ft | 407 kts | 230° |
| 2026-05-07 22:08 | 44.25891 | -69.39847 | 39736 ft | 408 kts | 230° |
| 2026-05-07 22:08 | 44.22011 | -69.45623 | 39740 ft | 408 kts | 230° |
| 2026-05-07 22:09 | 44.18156 | -69.51349 | 39745 ft | 408 kts | 230° |
| 2026-05-07 22:09 | 44.14273 | -69.57107 | 39745 ft | 408 kts | 230° |
| 2026-05-07 22:10 | 44.10384 | -69.62860 | 39743 ft | 408 kts | 230° |
| 2026-05-07 22:10 | 44.06494 | -69.68604 | 39747 ft | 408 kts | 230° |
| 2026-05-07 22:11 | 44.02602 | -69.74340 | 39748 ft | 408 kts | 230° |
| 2026-05-07 22:11 | 43.98705 | -69.80070 | 39746 ft | 408 kts | 230° |
| 2026-05-07 22:12 | 43.94811 | -69.85783 | 39764 ft | 407 kts | 230° |
| 2026-05-07 22:12 | 43.90917 | -69.91486 | 39766 ft | 407 kts | 230° |
| 2026-05-07 22:13 | 43.87023 | -69.97177 | 39766 ft | 407 kts | 230° |
| 2026-05-07 22:13 | 43.83131 | -70.02854 | 39766 ft | 406 kts | 230° |
| 2026-05-07 22:14 | 43.79237 | -70.08523 | 39766 ft | 406 kts | 230° |
| 2026-05-07 22:14 | 43.75338 | -70.14186 | 39750 ft | 406 kts | 230° |
| 2026-05-07 22:15 | 43.71437 | -70.19842 | 39748 ft | 407 kts | 230° |
| 2026-05-07 22:15 | 43.67525 | -70.25502 | 39745 ft | 407 kts | 230° |
| 2026-05-07 22:16 | 43.63614 | -70.31149 | 39747 ft | 407 kts | 230° |
| 2026-05-07 22:16 | 43.59721 | -70.36758 | 39747 ft | 407 kts | 230° |
| 2026-05-07 22:17 | 43.55774 | -70.42434 | 39747 ft | 407 kts | 230° |
| 2026-05-07 22:17 | 43.51846 | -70.48072 | 39758 ft | 408 kts | 230° |
| 2026-05-07 22:18 | 43.45974 | -70.56468 | 39773 ft | 408 kts | 229° |
| 2026-05-07 22:19 | 43.41512 | -70.61368 | 39772 ft | 417 kts | 216° |
| 2026-05-07 22:19 | 43.36128 | -70.64590 | 39772 ft | 426 kts | 207° |
| 2026-05-07 22:20 | 43.30532 | -70.67304 | 39768 ft | 426 kts | 207° |
| 2026-05-07 22:20 | 43.25044 | -70.69984 | 39778 ft | 426 kts | 207° |
| 2026-05-07 22:21 | 43.19460 | -70.72717 | 39754 ft | 426 kts | 207° |
| 2026-05-07 22:21 | 43.13881 | -70.75446 | 39754 ft | 426 kts | 207° |
| 2026-05-07 22:22 | 43.08300 | -70.78172 | 39752 ft | 425 kts | 207° |
| 2026-05-07 22:22 | 43.02725 | -70.80890 | 39756 ft | 425 kts | 207° |
| 2026-05-07 22:23 | 42.97152 | -70.83602 | 39751 ft | 425 kts | 207° |
| 2026-05-07 22:23 | 42.91584 | -70.86306 | 39761 ft | 425 kts | 207° |
| 2026-05-07 22:24 | 42.86015 | -70.89006 | 39759 ft | 424 kts | 208° |
| 2026-05-07 22:24 | 42.80454 | -70.91700 | 39790 ft | 424 kts | 208° |
| 2026-05-07 22:25 | 42.74891 | -70.94388 | 39784 ft | 424 kts | 208° |
| 2026-05-07 22:25 | 42.69363 | -70.97048 | 39792 ft | 424 kts | 208° |
| 2026-05-07 22:26 | 42.63763 | -70.99741 | 39769 ft | 424 kts | 208° |
| 2026-05-07 22:26 | 42.58235 | -71.02395 | 39772 ft | 424 kts | 208° |
| 2026-05-07 22:27 | 42.52673 | -71.05060 | 39772 ft | 424 kts | 208° |
| 2026-05-07 22:27 | 42.47067 | -71.07741 | 39786 ft | 424 kts | 208° |
| 2026-05-07 22:28 | 42.41498 | -71.10399 | 39778 ft | 424 kts | 208° |
| 2026-05-07 22:28 | 42.35965 | -71.13036 | 39783 ft | 424 kts | 208° |
| 2026-05-07 22:29 | 42.30393 | -71.15686 | 39787 ft | 424 kts | 208° |
| 2026-05-07 22:29 | 42.24820 | -71.18331 | 39790 ft | 425 kts | 208° |
| 2026-05-07 22:30 | 42.19247 | -71.20971 | 39788 ft | 424 kts | 208° |
| 2026-05-07 22:30 | 42.13672 | -71.23608 | 39791 ft | 425 kts | 208° |
| 2026-05-07 22:31 | 42.08098 | -71.26239 | 39787 ft | 425 kts | 208° |
| 2026-05-07 22:31 | 42.02512 | -71.28871 | 39795 ft | 425 kts | 208° |
| 2026-05-07 22:32 | 41.96927 | -71.31498 | 39803 ft | 425 kts | 208° |
| 2026-05-07 22:32 | 41.91337 | -71.34121 | 39768 ft | 424 kts | 208° |
| 2026-05-07 22:32 | 41.88568 | -71.35415 | 39272 ft | 421 kts | 209° |
| 2026-05-07 22:33 | 41.85794 | -71.36715 | 38666 ft | 422 kts | 209° |
| 2026-05-07 22:33 | 41.83068 | -71.37991 | 38007 ft | 421 kts | 209° |
| 2026-05-07 22:33 | 41.80263 | -71.39304 | 37248 ft | 421 kts | 209° |
| 2026-05-07 22:33 | 41.77499 | -71.40597 | 36503 ft | 421 kts | 209° |
| 2026-05-07 22:34 | 41.74763 | -71.41953 | 35755 ft | 417 kts | 212° |
| 2026-05-07 22:34 | 41.72225 | -71.43643 | 35025 ft | 408 kts | 219° |
| 2026-05-07 22:34 | 41.69908 | -71.45768 | 34303 ft | 401 kts | 225° |
| 2026-05-07 22:34 | 41.67756 | -71.48136 | 33563 ft | 399 kts | 226° |
| 2026-05-07 22:35 | 41.65637 | -71.50525 | 32794 ft | 398 kts | 226° |
| 2026-05-07 22:35 | 41.63529 | -71.52890 | 32257 ft | 393 kts | 226° |
| 2026-05-07 22:35 | 41.61451 | -71.55213 | 31767 ft | 387 kts | 226° |
| 2026-05-07 22:35 | 41.59398 | -71.57505 | 31278 ft | 382 kts | 225° |
| 2026-05-07 22:36 | 41.57372 | -71.59763 | 30798 ft | 377 kts | 225° |
| 2026-05-07 22:36 | 41.55371 | -71.61990 | 30329 ft | 372 kts | 225° |
| 2026-05-07 22:36 | 41.53389 | -71.64194 | 29863 ft | 368 kts | 225° |
| 2026-05-07 22:36 | 41.51432 | -71.66368 | 29364 ft | 364 kts | 225° |
| 2026-05-07 22:37 | 41.49501 | -71.68510 | 28903 ft | 358 kts | 225° |
| 2026-05-07 22:37 | 41.47600 | -71.70617 | 28453 ft | 353 kts | 225° |
| 2026-05-07 22:37 | 41.45725 | -71.72694 | 28012 ft | 348 kts | 225° |
| 2026-05-07 22:37 | 41.43875 | -71.74742 | 27586 ft | 343 kts | 226° |
| 2026-05-07 22:38 | 41.42049 | -71.76763 | 27145 ft | 339 kts | 226° |
| 2026-05-07 22:38 | 41.40245 | -71.78757 | 26709 ft | 335 kts | 226° |
| 2026-05-07 22:38 | 41.38457 | -71.80733 | 26279 ft | 332 kts | 226° |
| 2026-05-07 22:38 | 41.36688 | -71.82688 | 25851 ft | 329 kts | 226° |
| 2026-05-07 22:39 | 41.34932 | -71.84626 | 25418 ft | 326 kts | 226° |
| 2026-05-07 22:39 | 41.33216 | -71.86517 | 25000 ft | 324 kts | 226° |
| 2026-05-07 22:39 | 41.31486 | -71.88423 | 24570 ft | 322 kts | 226° |
| 2026-05-07 22:39 | 41.29765 | -71.90320 | 24153 ft | 320 kts | 226° |
| 2026-05-07 22:40 | 41.28049 | -71.92209 | 23747 ft | 320 kts | 226° |
| 2026-05-07 22:40 | 41.26300 | -71.94151 | 23492 ft | 336 kts | 226° |
| 2026-05-07 22:40 | 41.24474 | -71.96161 | 23147 ft | 343 kts | 225° |
| 2026-05-07 22:40 | 41.22634 | -71.98176 | 22656 ft | 342 kts | 225° |
| 2026-05-07 22:41 | 41.20798 | -72.00182 | 22250 ft | 340 kts | 225° |
| 2026-05-07 22:41 | 41.18974 | -72.02176 | 21905 ft | 339 kts | 225° |
| 2026-05-07 22:41 | 41.17156 | -72.04165 | 21564 ft | 338 kts | 225° |
| 2026-05-07 22:41 | 41.15349 | -72.06142 | 21193 ft | 337 kts | 225° |
| 2026-05-07 22:42 | 41.13542 | -72.08117 | 20826 ft | 336 kts | 225° |
| 2026-05-07 22:42 | 41.11755 | -72.10102 | 20484 ft | 334 kts | 226° |
| 2026-05-07 22:42 | 41.10217 | -72.12361 | 20125 ft | 328 kts | 238° |
| 2026-05-07 22:42 | 41.09180 | -72.15030 | 19775 ft | 325 kts | 249° |
| 2026-05-07 22:43 | 41.08451 | -72.17864 | 19421 ft | 325 kts | 251° |
| 2026-05-07 22:43 | 41.07761 | -72.20718 | 19079 ft | 325 kts | 251° |
| 2026-05-07 22:43 | 41.07067 | -72.23568 | 18733 ft | 325 kts | 251° |
| 2026-05-07 22:43 | 41.06369 | -72.26414 | 18389 ft | 325 kts | 251° |
| 2026-05-07 22:44 | 41.05666 | -72.29258 | 18026 ft | 325 kts | 251° |
| 2026-05-07 22:44 | 41.04962 | -72.32096 | 17656 ft | 324 kts | 251° |
| 2026-05-07 22:44 | 41.04259 | -72.34923 | 17314 ft | 322 kts | 251° |
| 2026-05-07 22:44 | 41.03561 | -72.37727 | 16975 ft | 320 kts | 251° |
| 2026-05-07 22:45 | 41.02865 | -72.40520 | 16630 ft | 318 kts | 251° |
| 2026-05-07 22:45 | 41.02172 | -72.43296 | 16296 ft | 317 kts | 251° |
| 2026-05-07 22:45 | 41.01480 | -72.46061 | 15961 ft | 315 kts | 251° |
| 2026-05-07 22:45 | 41.00793 | -72.48807 | 15623 ft | 314 kts | 251° |
| 2026-05-07 22:46 | 41.00108 | -72.51539 | 15361 ft | 312 kts | 251° |
| 2026-05-07 22:46 | 40.99425 | -72.54265 | 15092 ft | 311 kts | 251° |
| 2026-05-07 22:46 | 40.98743 | -72.56978 | 14775 ft | 310 kts | 251° |
| 2026-05-07 22:46 | 40.98065 | -72.59675 | 14448 ft | 308 kts | 251° |
| 2026-05-07 22:47 | 40.97389 | -72.62363 | 14107 ft | 307 kts | 251° |
| 2026-05-07 22:47 | 40.96715 | -72.65034 | 13799 ft | 305 kts | 251° |
| 2026-05-07 22:47 | 40.96045 | -72.67692 | 13450 ft | 304 kts | 251° |
| 2026-05-07 22:47 | 40.95377 | -72.70338 | 13110 ft | 302 kts | 251° |
| 2026-05-07 22:48 | 40.94711 | -72.72971 | 12790 ft | 301 kts | 251° |
| 2026-05-07 22:48 | 40.94046 | -72.75598 | 12469 ft | 301 kts | 251° |
| 2026-05-07 22:48 | 40.93317 | -72.78185 | 12142 ft | 300 kts | 246° |
| 2026-05-07 22:48 | 40.92179 | -72.80451 | 11859 ft | 302 kts | 230° |
| 2026-05-07 22:49 | 40.90548 | -72.82281 | 11638 ft | 303 kts | 221° |
| 2026-05-07 22:49 | 40.88867 | -72.83872 | 11435 ft | 292 kts | 220° |
| 2026-05-07 22:49 | 40.87243 | -72.85399 | 11225 ft | 281 kts | 221° |
| 2026-05-07 22:49 | 40.85705 | -72.86856 | 11016 ft | 271 kts | 221° |
| 2026-05-07 22:50 | 40.84178 | -72.88312 | 10761 ft | 264 kts | 221° |
| 2026-05-07 22:50 | 40.82728 | -72.89697 | 10523 ft | 258 kts | 221° |
| 2026-05-07 22:50 | 40.81282 | -72.91083 | 10276 ft | 257 kts | 221° |
| 2026-05-07 22:50 | 40.79834 | -72.92470 | 10045 ft | 257 kts | 221° |
| 2026-05-07 22:51 | 40.78390 | -72.93854 | 9759 ft | 256 kts | 221° |
| 2026-05-07 22:51 | 40.76954 | -72.95229 | 9513 ft | 256 kts | 221° |
| 2026-05-07 22:51 | 40.75512 | -72.96608 | 9287 ft | 256 kts | 221° |
| 2026-05-07 22:51 | 40.74066 | -72.97991 | 9076 ft | 256 kts | 221° |
| 2026-05-07 22:52 | 40.72624 | -72.99372 | 8860 ft | 256 kts | 221° |
| 2026-05-07 22:52 | 40.71190 | -73.00754 | 8659 ft | 255 kts | 221° |
| 2026-05-07 22:52 | 40.69758 | -73.02141 | 8448 ft | 255 kts | 221° |
| 2026-05-07 22:52 | 40.68332 | -73.03528 | 8254 ft | 255 kts | 221° |
| 2026-05-07 22:53 | 40.66909 | -73.04917 | 8050 ft | 255 kts | 221° |
| 2026-05-07 22:53 | 40.65947 | -73.05861 | 7912 ft | 255 kts | 221° |
| 2026-05-07 22:53 | 40.64526 | -73.07261 | 7709 ft | 255 kts | 221° |
| 2026-05-07 22:53 | 40.63109 | -73.08660 | 7508 ft | 255 kts | 221° |
| 2026-05-07 22:54 | 40.61694 | -73.10056 | 7308 ft | 255 kts | 221° |
| 2026-05-07 22:54 | 40.60281 | -73.11452 | 7111 ft | 254 kts | 221° |
| 2026-05-07 22:54 | 40.58885 | -73.12839 | 6929 ft | 254 kts | 221° |
| 2026-05-07 22:54 | 40.57457 | -73.14265 | 6718 ft | 254 kts | 221° |
| 2026-05-07 22:55 | 40.56054 | -73.15674 | 6569 ft | 254 kts | 221° |
| 2026-05-07 22:55 | 40.54648 | -73.17088 | 6427 ft | 255 kts | 221° |
| 2026-05-07 22:55 | 40.53240 | -73.18508 | 6287 ft | 254 kts | 221° |
| 2026-05-07 22:55 | 40.51839 | -73.19923 | 6140 ft | 254 kts | 221° |
| 2026-05-07 22:56 | 40.50438 | -73.21342 | 5990 ft | 254 kts | 221° |
| 2026-05-07 22:56 | 40.49042 | -73.22754 | 5839 ft | 253 kts | 221° |
| 2026-05-07 22:56 | 40.47646 | -73.24162 | 5670 ft | 253 kts | 221° |
| 2026-05-07 22:56 | 40.46282 | -73.25613 | 5525 ft | 251 kts | 227° |
| 2026-05-07 22:57 | 40.45310 | -73.27474 | 5379 ft | 246 kts | 244° |
| 2026-05-07 22:57 | 40.44647 | -73.29535 | 5224 ft | 245 kts | 255° |
| 2026-05-07 22:57 | 40.44454 | -73.31706 | 5068 ft | 245 kts | 273° |
| 2026-05-07 22:57 | 40.44866 | -73.33603 | 5014 ft | 246 kts | 293° |
| 2026-05-07 22:58 | 40.45712 | -73.35569 | 4995 ft | 248 kts | 297° |
| 2026-05-07 22:58 | 40.46615 | -73.37504 | 5001 ft | 249 kts | 298° |
| 2026-05-07 22:58 | 40.47523 | -73.39435 | 4998 ft | 248 kts | 298° |
| 2026-05-07 22:58 | 40.48431 | -73.41362 | 4994 ft | 249 kts | 298° |
| 2026-05-07 22:59 | 40.49351 | -73.43285 | 4792 ft | 248 kts | 300° |
| 2026-05-07 22:59 | 40.50341 | -73.45150 | 4347 ft | 249 kts | 301° |
| 2026-05-07 22:59 | 40.51277 | -73.47050 | 4010 ft | 246 kts | 297° |
| 2026-05-07 22:59 | 40.52154 | -73.48973 | 3753 ft | 245 kts | 297° |
| 2026-05-07 23:00 | 40.52950 | -73.50740 | 3496 ft | 245 kts | 297° |
| 2026-05-07 23:00 | 40.53812 | -73.52649 | 3327 ft | 237 kts | 296° |
| 2026-05-07 23:00 | 40.54636 | -73.54463 | 3228 ft | 225 kts | 296° |
| 2026-05-07 23:00 | 40.55420 | -73.56184 | 3146 ft | 214 kts | 296° |
| 2026-05-07 23:01 | 40.56163 | -73.57819 | 3050 ft | 203 kts | 296° |
| 2026-05-07 23:01 | 40.56872 | -73.59377 | 2936 ft | 195 kts | 295° |
| 2026-05-07 23:01 | 40.57555 | -73.60886 | 2735 ft | 190 kts | 295° |
| 2026-05-07 23:01 | 40.58223 | -73.62363 | 2440 ft | 186 kts | 295° |
| 2026-05-07 23:02 | 40.58878 | -73.63804 | 2182 ft | 179 kts | 295° |
| 2026-05-07 23:02 | 40.59498 | -73.65169 | 1943 ft | 168 kts | 294° |
| 2026-05-07 23:02 | 40.60081 | -73.66456 | 1728 ft | 159 kts | 293° |
| 2026-05-07 23:02 | 40.60631 | -73.67665 | 1489 ft | 147 kts | 292° |
| 2026-05-07 23:03 | 40.61137 | -73.68788 | 1328 ft | 141 kts | 291° |
| 2026-05-07 23:03 | 40.61640 | -73.69905 | 1132 ft | 144 kts | 293° |
| 2026-05-07 23:03 | 40.61847 | -73.70360 | 1066 ft | 145 kts | 293° |
| 2026-05-07 23:04 | 40.62377 | -73.71536 | 842 ft | 145 kts | 296° |
| 2026-05-07 23:04 | 40.62886 | -73.72656 | 663 ft | 143 kts | 299° |
| 2026-05-07 23:04 | 40.63393 | -73.73790 | 476 ft | 145 kts | 302° |
| 2026-05-07 23:04 | 40.63897 | -73.74935 | 305 ft | 145 kts | 304° |
| 2026-05-07 23:05 | 40.64416 | -73.76045 | 92 ft | 142 kts | 304° |
| 2026-05-07 23:05 | 40.64900 | -73.77100 | 27 ft | 126 kts | 304° |
| 2026-05-07 23:05 | 40.65295 | -73.77957 | 28 ft | 85 kts | 301° |
| 2026-05-07 23:05 | 40.65431 | -73.78275 | 29 ft | 19 kts | 283° |
| 2026-05-07 23:06 | 40.65380 | -73.78401 | 27 ft | 12 kts | 232° |
| 2026-05-07 23:06 | 40.65365 | -73.78435 | 26 ft | 0 kts | 242° |
| 2026-05-07 23:07 | 40.65364 | -73.78437 | 25 ft | 1 kts | 242° |
| 2026-05-07 23:07 | 40.65356 | -73.78455 | 22 ft | 4 kts | 237° |
| 2026-05-07 23:07 | 40.65342 | -73.78457 | 23 ft | 1 kts | 176° |
| 2026-05-07 23:07 | 40.65294 | -73.78431 | 22 ft | 14 kts | 143° |
| 2026-05-07 23:08 | 40.65235 | -73.78313 | 22 ft | 16 kts | 119° |
| 2026-05-07 23:08 | 40.65185 | -73.78193 | 22 ft | 12 kts | 117° |
| 2026-05-07 23:08 | 40.65151 | -73.78123 | 22 ft | 10 kts | 124° |
| 2026-05-07 23:08 | 40.65103 | -73.78021 | 22 ft | 15 kts | 120° |
| 2026-05-07 23:09 | 40.65045 | -73.77890 | 22 ft | 18 kts | 121° |
| 2026-05-07 23:09 | 40.65015 | -73.77763 | 22 ft | 11 kts | 57° |
| 2026-05-07 23:09 | 40.65035 | -73.77673 | 23 ft | 11 kts | 111° |
| 2026-05-07 23:09 | 40.64987 | -73.77564 | 22 ft | 16 kts | 121° |
| 2026-05-07 23:10 | 40.64923 | -73.77423 | 22 ft | 20 kts | 120° |
| 2026-05-07 23:10 | 40.64847 | -73.77252 | 23 ft | 23 kts | 120° |
| 2026-05-07 23:10 | 40.64761 | -73.77074 | 25 ft | 23 kts | 129° |
| 2026-05-07 23:10 | 40.64611 | -73.76987 | 22 ft | 25 kts | 178° |
| 2026-05-07 23:11 | 40.64431 | -73.76998 | 22 ft | 26 kts | 193° |
| 2026-05-07 23:11 | 40.64306 | -73.77082 | 23 ft | 18 kts | 211° |
| 2026-05-07 23:11 | 40.64193 | -73.77172 | 23 ft | 20 kts | 211° |
| 2026-05-07 23:11 | 40.64065 | -73.77272 | 23 ft | 23 kts | 210° |
| 2026-05-07 23:12 | 40.63921 | -73.77383 | 23 ft | 25 kts | 211° |
| 2026-05-07 23:12 | 40.63766 | -73.77507 | 22 ft | 27 kts | 211° |
| 2026-05-07 23:12 | 40.63611 | -73.77627 | 23 ft | 24 kts | 210° |
| 2026-05-07 23:12 | 40.63518 | -73.77720 | 23 ft | 11 kts | 252° |
| 2026-05-07 23:13 | 40.63552 | -73.77818 | 22 ft | 13 kts | 301° |
| 2026-05-07 23:13 | 40.63625 | -73.77891 | 22 ft | 14 kts | 348° |
| 2026-05-07 23:13 | 40.63716 | -73.77905 | 22 ft | 14 kts | 353° |
| 2026-05-07 23:13 | 40.63815 | -73.77921 | 22 ft | 15 kts | 353° |
| 2026-05-07 23:14 | 40.63904 | -73.77936 | 22 ft | 9 kts | 353° |
| 2026-05-07 23:14 | 40.63960 | -73.77945 | 22 ft | 4 kts | 353° |
| 2026-05-07 23:14 | 40.63988 | -73.77951 | 22 ft | 5 kts | 346° |
| 2026-05-07 23:14 | 40.64020 | -73.77969 | 22 ft | 6 kts | 329° |
| 2026-05-07 23:15 | 40.64032 | -73.78009 | 22 ft | 5 kts | 264° |
| 2026-05-07 23:15 | 40.64023 | -73.78044 | 22 ft | 3 kts | 250° |
| 2026-05-07 23:15 | 40.64016 | -73.78066 | 22 ft | 2 kts | 248° |
| 2026-05-07 23:15 | 40.64014 | -73.78074 | 22 ft | 0 kts | 248° |
| 2026-05-07 23:23 | 40.64014 | -73.78073 | 22 ft | 0 kts | 248° |